sensor_id;sensor_type;location;lat;lon;timestamp;pressure;altitude;pressure_sealevel;temperature;humidity
78751;BME280;68070;50.954;11.060;2023-11-21T00:01:57;98419.81;;;8.36;74.50
78751;BME280;68070;50.954;11.060;2023-11-21T00:04:23;98423.10;;;8.35;74.51
78751;BME280;68070;50.954;11.060;2023-11-21T00:06:49;98421.29;;;8.38;74.46
78751;BME280;68070;50.954;11.060;2023-11-21T00:09:14;98421.42;;;8.41;74.60
78751;BME280;68070;50.954;11.060;2023-11-21T00:11:44;98419.80;;;8.43;74.68
78751;BME280;68070;50.954;11.060;2023-11-21T00:14:11;98417.33;;;8.45;74.51
78751;BME280;68070;50.954;11.060;2023-11-21T00:16:37;98416.49;;;8.47;74.24
78751;BME280;68070;50.954;11.060;2023-11-21T00:19:02;98418.63;;;8.47;74.14
78751;BME280;68070;50.954;11.060;2023-11-21T00:21:27;98415.52;;;8.46;74.20
78751;BME280;68070;50.954;11.060;2023-11-21T00:23:55;98418.77;;;8.45;74.00
78751;BME280;68070;50.954;11.060;2023-11-21T00:26:21;98416.52;;;8.42;73.84
78751;BME280;68070;50.954;11.060;2023-11-21T00:28:47;98421.53;;;8.39;74.16
78751;BME280;68070;50.954;11.060;2023-11-21T00:31:13;98422.54;;;8.38;73.81
78751;BME280;68070;50.954;11.060;2023-11-21T00:33:39;98421.05;;;8.38;73.79
78751;BME280;68070;50.954;11.060;2023-11-21T00:36:04;98421.27;;;8.40;74.13
78751;BME280;68070;50.954;11.060;2023-11-21T00:38:35;98422.95;;;8.44;73.98
78751;BME280;68070;50.954;11.060;2023-11-21T00:41:01;98418.60;;;8.45;74.17
78751;BME280;68070;50.954;11.060;2023-11-21T00:43:26;98419.45;;;8.46;74.18
78751;BME280;68070;50.954;11.060;2023-11-21T00:45:51;98424.88;;;8.46;73.74
78751;BME280;68070;50.954;11.060;2023-11-21T00:48:17;98429.14;;;8.44;73.50
78751;BME280;68070;50.954;11.060;2023-11-21T00:50:44;98436.13;;;8.41;73.48
78751;BME280;68070;50.954;11.060;2023-11-21T00:53:09;98439.08;;;8.39;73.19
78751;BME280;68070;50.954;11.060;2023-11-21T00:55:36;98434.63;;;8.35;72.97
78751;BME280;68070;50.954;11.060;2023-11-21T00:58:01;98435.91;;;8.30;73.19
78751;BME280;68070;50.954;11.060;2023-11-21T01:00:29;98436.70;;;8.28;73.42
78751;BME280;68070;50.954;11.060;2023-11-21T01:02:55;98438.67;;;8.26;73.14
78751;BME280;68070;50.954;11.060;2023-11-21T01:05:20;98440.02;;;8.24;73.38
78751;BME280;68070;50.954;11.060;2023-11-21T01:07:46;98440.76;;;8.29;73.30
78751;BME280;68070;50.954;11.060;2023-11-21T01:10:11;98436.15;;;8.29;73.67
78751;BME280;68070;50.954;11.060;2023-11-21T01:12:38;98442.64;;;8.34;73.91
78751;BME280;68070;50.954;11.060;2023-11-21T01:15:06;98448.20;;;8.38;74.02
78751;BME280;68070;50.954;11.060;2023-11-21T01:17:38;98449.09;;;8.43;74.32
78751;BME280;68070;50.954;11.060;2023-11-21T01:20:04;98452.60;;;8.48;74.31
78751;BME280;68070;50.954;11.060;2023-11-21T01:22:36;98453.77;;;8.52;73.95
78751;BME280;68070;50.954;11.060;2023-11-21T01:25:01;98451.52;;;8.56;73.89
78751;BME280;68070;50.954;11.060;2023-11-21T01:27:29;98458.30;;;8.58;73.42
78751;BME280;68070;50.954;11.060;2023-11-21T01:29:55;98462.29;;;8.57;73.21
78751;BME280;68070;50.954;11.060;2023-11-21T01:32:21;98460.91;;;8.56;73.52
78751;BME280;68070;50.954;11.060;2023-11-21T01:34:48;98463.16;;;8.57;73.54
78751;BME280;68070;50.954;11.060;2023-11-21T01:37:13;98466.76;;;8.56;73.29
78751;BME280;68070;50.954;11.060;2023-11-21T01:39:39;98467.27;;;8.51;73.06
78751;BME280;68070;50.954;11.060;2023-11-21T01:42:05;98469.61;;;8.48;74.03
78751;BME280;68070;50.954;11.060;2023-11-21T01:44:31;98464.98;;;8.51;73.45
78751;BME280;68070;50.954;11.060;2023-11-21T01:46:57;98464.52;;;8.53;73.65
78751;BME280;68070;50.954;11.060;2023-11-21T01:49:23;98470.44;;;8.57;73.60
78751;BME280;68070;50.954;11.060;2023-11-21T01:51:49;98464.64;;;8.60;73.79
78751;BME280;68070;50.954;11.060;2023-11-21T01:54:16;98467.08;;;8.66;73.91
78751;BME280;68070;50.954;11.060;2023-11-21T01:56:45;98470.80;;;8.70;73.87
78751;BME280;68070;50.954;11.060;2023-11-21T01:59:12;98477.18;;;8.71;73.35
78751;BME280;68070;50.954;11.060;2023-11-21T02:01:39;98479.65;;;8.68;73.37
78751;BME280;68070;50.954;11.060;2023-11-21T02:04:05;98480.86;;;8.67;73.16
78751;BME280;68070;50.954;11.060;2023-11-21T02:06:34;98477.23;;;8.65;73.05
78751;BME280;68070;50.954;11.060;2023-11-21T02:08:59;98478.08;;;8.61;73.20
78751;BME280;68070;50.954;11.060;2023-11-21T02:11:26;98482.48;;;8.54;73.04
78751;BME280;68070;50.954;11.060;2023-11-21T02:13:53;98487.03;;;8.50;72.92
78751;BME280;68070;50.954;11.060;2023-11-21T02:16:19;98485.10;;;8.47;72.97
78751;BME280;68070;50.954;11.060;2023-11-21T02:18:47;98483.81;;;8.44;72.93
78751;BME280;68070;50.954;11.060;2023-11-21T02:21:14;98478.73;;;8.40;73.16
78751;BME280;68070;50.954;11.060;2023-11-21T02:23:39;98481.00;;;8.43;73.44
78751;BME280;68070;50.954;11.060;2023-11-21T02:26:10;98483.23;;;8.44;73.89
78751;BME280;68070;50.954;11.060;2023-11-21T02:28:36;98481.83;;;8.46;74.00
78751;BME280;68070;50.954;11.060;2023-11-21T02:31:01;98480.09;;;8.50;74.19
78751;BME280;68070;50.954;11.060;2023-11-21T02:33:28;98482.86;;;8.54;73.90
78751;BME280;68070;50.954;11.060;2023-11-21T02:35:53;98482.39;;;8.54;73.87
78751;BME280;68070;50.954;11.060;2023-11-21T02:38:21;98481.09;;;8.49;73.80
78751;BME280;68070;50.954;11.060;2023-11-21T02:40:46;98484.59;;;8.45;73.73
78751;BME280;68070;50.954;11.060;2023-11-21T02:43:13;98482.73;;;8.39;73.54
78751;BME280;68070;50.954;11.060;2023-11-21T02:45:38;98488.83;;;8.36;73.27
78751;BME280;68070;50.954;11.060;2023-11-21T02:48:04;98481.56;;;8.28;73.05
78751;BME280;68070;50.954;11.060;2023-11-21T02:50:31;98486.08;;;8.17;73.01
78751;BME280;68070;50.954;11.060;2023-11-21T02:52:57;98487.90;;;8.10;73.48
78751;BME280;68070;50.954;11.060;2023-11-21T02:55:23;98487.74;;;8.02;73.42
78751;BME280;68070;50.954;11.060;2023-11-21T02:57:52;98485.23;;;7.95;73.55
78751;BME280;68070;50.954;11.060;2023-11-21T03:00:18;98481.44;;;7.91;73.91
78751;BME280;68070;50.954;11.060;2023-11-21T03:02:43;98484.38;;;7.92;73.92
78751;BME280;68070;50.954;11.060;2023-11-21T03:05:09;98481.91;;;7.89;74.28
78751;BME280;68070;50.954;11.060;2023-11-21T03:07:36;98483.85;;;7.85;74.67
78751;BME280;68070;50.954;11.060;2023-11-21T03:10:02;98481.20;;;7.82;74.50
78751;BME280;68070;50.954;11.060;2023-11-21T03:12:29;98483.98;;;7.73;74.78
78751;BME280;68070;50.954;11.060;2023-11-21T03:14:55;98489.62;;;7.61;74.85
78751;BME280;68070;50.954;11.060;2023-11-21T03:17:20;98491.58;;;7.54;74.69
78751;BME280;68070;50.954;11.060;2023-11-21T03:19:46;98493.65;;;7.44;74.51
78751;BME280;68070;50.954;11.060;2023-11-21T03:22:12;98496.44;;;7.35;74.68
78751;BME280;68070;50.954;11.060;2023-11-21T03:24:37;98497.80;;;7.28;74.65
78751;BME280;68070;50.954;11.060;2023-11-21T03:27:04;98501.75;;;7.20;74.08
78751;BME280;68070;50.954;11.060;2023-11-21T03:29:30;98503.05;;;7.08;74.32
78751;BME280;68070;50.954;11.060;2023-11-21T03:31:56;98507.52;;;7.02;74.67
78751;BME280;68070;50.954;11.060;2023-11-21T03:34:26;98506.15;;;6.97;74.19
78751;BME280;68070;50.954;11.060;2023-11-21T03:36:52;98506.38;;;6.88;74.54
78751;BME280;68070;50.954;11.060;2023-11-21T03:39:19;98511.95;;;6.79;74.94
78751;BME280;68070;50.954;11.060;2023-11-21T03:41:45;98513.30;;;6.72;75.41
78751;BME280;68070;50.954;11.060;2023-11-21T03:44:11;98516.83;;;6.67;75.55
78751;BME280;68070;50.954;11.060;2023-11-21T03:46:36;98516.26;;;6.60;75.77
78751;BME280;68070;50.954;11.060;2023-11-21T03:49:02;98517.27;;;6.50;75.71
78751;BME280;68070;50.954;11.060;2023-11-21T03:51:27;98519.27;;;6.38;76.15
78751;BME280;68070;50.954;11.060;2023-11-21T03:53:54;98525.55;;;6.29;76.13
78751;BME280;68070;50.954;11.060;2023-11-21T03:56:19;98523.63;;;6.20;76.13
78751;BME280;68070;50.954;11.060;2023-11-21T03:58:47;98522.83;;;6.08;76.19
78751;BME280;68070;50.954;11.060;2023-11-21T04:01:24;98529.26;;;5.96;76.20
78751;BME280;68070;50.954;11.060;2023-11-21T04:03:50;98530.38;;;5.86;76.24
78751;BME280;68070;50.954;11.060;2023-11-21T04:06:17;98530.55;;;5.78;76.18
78751;BME280;68070;50.954;11.060;2023-11-21T04:08:45;98529.40;;;5.68;75.86
78751;BME280;68070;50.954;11.060;2023-11-21T04:11:12;98534.51;;;5.60;76.11
78751;BME280;68070;50.954;11.060;2023-11-21T04:13:41;98539.02;;;5.59;75.88
78751;BME280;68070;50.954;11.060;2023-11-21T04:16:08;98534.70;;;5.53;76.21
78751;BME280;68070;50.954;11.060;2023-11-21T04:18:35;98534.80;;;5.47;76.59
78751;BME280;68070;50.954;11.060;2023-11-21T04:21:01;98535.57;;;5.45;77.07
78751;BME280;68070;50.954;11.060;2023-11-21T04:23:28;98536.55;;;5.47;77.05
78751;BME280;68070;50.954;11.060;2023-11-21T04:25:54;98537.75;;;5.44;77.16
78751;BME280;68070;50.954;11.060;2023-11-21T04:28:21;98539.47;;;5.37;77.03
78751;BME280;68070;50.954;11.060;2023-11-21T04:30:46;98546.09;;;5.29;76.79
78751;BME280;68070;50.954;11.060;2023-11-21T04:33:11;98549.73;;;5.21;77.10
78751;BME280;68070;50.954;11.060;2023-11-21T04:35:37;98546.65;;;5.17;77.20
78751;BME280;68070;50.954;11.060;2023-11-21T04:38:02;98548.08;;;5.11;76.87
78751;BME280;68070;50.954;11.060;2023-11-21T04:40:28;98550.58;;;5.02;76.80
78751;BME280;68070;50.954;11.060;2023-11-21T04:42:55;98552.34;;;4.93;76.57
78751;BME280;68070;50.954;11.060;2023-11-21T04:45:22;98551.26;;;4.81;77.06
78751;BME280;68070;50.954;11.060;2023-11-21T04:47:47;98547.00;;;4.70;77.35
78751;BME280;68070;50.954;11.060;2023-11-21T04:50:13;98547.58;;;4.63;77.54
78751;BME280;68070;50.954;11.060;2023-11-21T04:52:39;98555.08;;;4.55;78.04
78751;BME280;68070;50.954;11.060;2023-11-21T04:55:04;98562.31;;;4.49;78.43
78751;BME280;68070;50.954;11.060;2023-11-21T04:57:32;98564.52;;;4.47;78.59
78751;BME280;68070;50.954;11.060;2023-11-21T04:59:57;98567.10;;;4.45;78.66
78751;BME280;68070;50.954;11.060;2023-11-21T05:02:23;98565.45;;;4.43;78.84
78751;BME280;68070;50.954;11.060;2023-11-21T05:04:48;98567.08;;;4.43;78.72
78751;BME280;68070;50.954;11.060;2023-11-21T05:07:14;98570.41;;;4.43;78.95
78751;BME280;68070;50.954;11.060;2023-11-21T05:09:42;98571.36;;;4.48;79.31
78751;BME280;68070;50.954;11.060;2023-11-21T05:12:10;98575.63;;;4.51;79.58
78751;BME280;68070;50.954;11.060;2023-11-21T05:14:36;98579.61;;;4.52;79.47
78751;BME280;68070;50.954;11.060;2023-11-21T05:17:01;98578.93;;;4.51;79.24
78751;BME280;68070;50.954;11.060;2023-11-21T05:19:27;98578.88;;;4.49;78.94
78751;BME280;68070;50.954;11.060;2023-11-21T05:21:54;98584.08;;;4.44;78.37
78751;BME280;68070;50.954;11.060;2023-11-21T05:24:20;98586.86;;;4.38;78.18
78751;BME280;68070;50.954;11.060;2023-11-21T05:26:45;98582.96;;;4.33;78.86
78751;BME280;68070;50.954;11.060;2023-11-21T05:29:10;98584.70;;;4.27;79.28
78751;BME280;68070;50.954;11.060;2023-11-21T05:31:36;98588.00;;;4.21;79.17
78751;BME280;68070;50.954;11.060;2023-11-21T05:34:03;98588.94;;;4.17;79.12
78751;BME280;68070;50.954;11.060;2023-11-21T05:36:30;98587.59;;;4.13;80.48
78751;BME280;68070;50.954;11.060;2023-11-21T05:38:56;98585.81;;;4.13;79.52
78751;BME280;68070;50.954;11.060;2023-11-21T05:41:21;98583.36;;;4.13;79.15
78751;BME280;68070;50.954;11.060;2023-11-21T05:43:46;98581.48;;;4.12;80.54
78751;BME280;68070;50.954;11.060;2023-11-21T05:46:12;98582.55;;;4.12;80.28
78751;BME280;68070;50.954;11.060;2023-11-21T05:48:38;98589.79;;;4.15;80.17
78751;BME280;68070;50.954;11.060;2023-11-21T05:51:06;98589.12;;;4.14;80.41
78751;BME280;68070;50.954;11.060;2023-11-21T05:53:31;98591.85;;;4.12;80.74
78751;BME280;68070;50.954;11.060;2023-11-21T05:55:57;98594.21;;;4.11;80.16
78751;BME280;68070;50.954;11.060;2023-11-21T05:58:22;98592.13;;;4.07;81.27
78751;BME280;68070;50.954;11.060;2023-11-21T06:00:49;98598.40;;;4.06;80.81
78751;BME280;68070;50.954;11.060;2023-11-21T06:03:14;98606.80;;;4.03;81.05
78751;BME280;68070;50.954;11.060;2023-11-21T06:05:40;98611.55;;;4.00;81.25
78751;BME280;68070;50.954;11.060;2023-11-21T06:08:05;98620.55;;;3.99;80.50
78751;BME280;68070;50.954;11.060;2023-11-21T06:10:36;98626.05;;;4.02;80.30
78751;BME280;68070;50.954;11.060;2023-11-21T06:13:01;98630.86;;;4.04;80.13
78751;BME280;68070;50.954;11.060;2023-11-21T06:15:29;98638.37;;;4.05;79.93
78751;BME280;68070;50.954;11.060;2023-11-21T06:17:54;98641.06;;;4.05;79.74
78751;BME280;68070;50.954;11.060;2023-11-21T06:20:21;98645.59;;;4.02;79.69
78751;BME280;68070;50.954;11.060;2023-11-21T06:22:49;98649.20;;;4.00;79.95
78751;BME280;68070;50.954;11.060;2023-11-21T06:25:15;98655.41;;;3.99;80.07
78751;BME280;68070;50.954;11.060;2023-11-21T06:27:48;98660.73;;;3.99;79.77
78751;BME280;68070;50.954;11.060;2023-11-21T06:30:14;98664.48;;;3.92;79.29
78751;BME280;68070;50.954;11.060;2023-11-21T06:32:41;98663.77;;;3.85;79.70
78751;BME280;68070;50.954;11.060;2023-11-21T06:35:07;98667.94;;;3.79;79.10
78751;BME280;68070;50.954;11.060;2023-11-21T06:37:35;98669.72;;;3.75;79.16
78751;BME280;68070;50.954;11.060;2023-11-21T06:40:01;98676.75;;;3.72;78.92
78751;BME280;68070;50.954;11.060;2023-11-21T06:42:29;98678.30;;;3.67;78.97
78751;BME280;68070;50.954;11.060;2023-11-21T06:44:55;98674.98;;;3.66;79.70
78751;BME280;68070;50.954;11.060;2023-11-21T06:47:26;98674.41;;;3.67;79.37
78751;BME280;68070;50.954;11.060;2023-11-21T06:49:52;98675.88;;;3.69;80.64
78751;BME280;68070;50.954;11.060;2023-11-21T06:52:21;98679.48;;;3.74;80.96
78751;BME280;68070;50.954;11.060;2023-11-21T06:54:48;98675.23;;;3.78;81.40
78751;BME280;68070;50.954;11.060;2023-11-21T06:57:14;98670.98;;;3.86;81.23
78751;BME280;68070;50.954;11.060;2023-11-21T06:59:40;98673.42;;;3.92;81.53
78751;BME280;68070;50.954;11.060;2023-11-21T07:02:06;98678.16;;;4.02;82.09
78751;BME280;68070;50.954;11.060;2023-11-21T07:04:35;98681.45;;;4.13;81.49
78751;BME280;68070;50.954;11.060;2023-11-21T07:07:03;98686.63;;;4.22;80.38
78751;BME280;68070;50.954;11.060;2023-11-21T07:09:29;98687.65;;;4.29;80.56
78751;BME280;68070;50.954;11.060;2023-11-21T07:11:55;98685.63;;;4.37;81.49
78751;BME280;68070;50.954;11.060;2023-11-21T07:14:21;98687.55;;;4.50;82.31
78751;BME280;68070;50.954;11.060;2023-11-21T07:16:47;98687.96;;;4.61;81.90
78751;BME280;68070;50.954;11.060;2023-11-21T07:19:13;98696.02;;;4.75;82.18
78751;BME280;68070;50.954;11.060;2023-11-21T07:21:39;98696.45;;;4.92;82.41
78751;BME280;68070;50.954;11.060;2023-11-21T07:24:06;98703.48;;;5.11;82.11
78751;BME280;68070;50.954;11.060;2023-11-21T07:26:32;98707.16;;;5.27;81.66
78751;BME280;68070;50.954;11.060;2023-11-21T07:29:02;98707.56;;;5.47;82.02
78751;BME280;68070;50.954;11.060;2023-11-21T07:31:28;98709.58;;;5.66;81.62
78751;BME280;68070;50.954;11.060;2023-11-21T07:33:55;98714.43;;;5.80;80.16
78751;BME280;68070;50.954;11.060;2023-11-21T07:36:24;98715.11;;;5.92;80.61
78751;BME280;68070;50.954;11.060;2023-11-21T07:38:50;98717.13;;;6.02;80.56
78751;BME280;68070;50.954;11.060;2023-11-21T07:41:17;98721.13;;;6.07;79.68
78751;BME280;68070;50.954;11.060;2023-11-21T07:43:44;98723.55;;;6.07;79.83
78751;BME280;68070;50.954;11.060;2023-11-21T07:46:11;98733.41;;;6.11;79.95
78751;BME280;68070;50.954;11.060;2023-11-21T07:48:39;98736.03;;;6.17;79.82
78751;BME280;68070;50.954;11.060;2023-11-21T07:51:05;98735.49;;;6.23;79.93
78751;BME280;68070;50.954;11.060;2023-11-21T07:53:30;98741.74;;;6.22;80.07
78751;BME280;68070;50.954;11.060;2023-11-21T07:55:57;98743.39;;;6.24;79.95
78751;BME280;68070;50.954;11.060;2023-11-21T07:58:23;98749.98;;;6.29;79.80
78751;BME280;68070;50.954;11.060;2023-11-21T08:00:49;98750.86;;;6.35;79.80
78751;BME280;68070;50.954;11.060;2023-11-21T08:03:15;98751.63;;;6.42;79.67
78751;BME280;68070;50.954;11.060;2023-11-21T08:05:41;98753.41;;;6.48;79.50
78751;BME280;68070;50.954;11.060;2023-11-21T08:08:07;98753.34;;;6.55;79.41
78751;BME280;68070;50.954;11.060;2023-11-21T08:10:33;98757.55;;;6.63;79.23
78751;BME280;68070;50.954;11.060;2023-11-21T08:12:59;98759.66;;;6.75;79.82
78751;BME280;68070;50.954;11.060;2023-11-21T08:15:24;98761.66;;;6.85;79.49
78751;BME280;68070;50.954;11.060;2023-11-21T08:17:50;98759.81;;;6.94;79.37
78751;BME280;68070;50.954;11.060;2023-11-21T08:20:16;98759.27;;;7.06;79.12
78751;BME280;68070;50.954;11.060;2023-11-21T08:22:45;98756.56;;;7.17;79.30
78751;BME280;68070;50.954;11.060;2023-11-21T08:25:12;98761.65;;;7.37;79.10
78751;BME280;68070;50.954;11.060;2023-11-21T08:27:39;98764.32;;;7.56;78.61
78751;BME280;68070;50.954;11.060;2023-11-21T08:30:05;98765.02;;;7.72;78.35
78751;BME280;68070;50.954;11.060;2023-11-21T08:32:32;98764.50;;;7.92;78.05
78751;BME280;68070;50.954;11.060;2023-11-21T08:34:59;98767.25;;;8.20;77.93
78751;BME280;68070;50.954;11.060;2023-11-21T08:37:25;98768.55;;;8.50;77.18
78751;BME280;68070;50.954;11.060;2023-11-21T08:39:53;98765.84;;;8.70;76.27
78751;BME280;68070;50.954;11.060;2023-11-21T08:42:19;98773.17;;;8.85;75.97
78751;BME280;68070;50.954;11.060;2023-11-21T08:44:45;98775.73;;;8.96;75.20
78751;BME280;68070;50.954;11.060;2023-11-21T08:47:11;98776.88;;;9.04;74.32
78751;BME280;68070;50.954;11.060;2023-11-21T08:49:37;98777.40;;;9.12;73.83
78751;BME280;68070;50.954;11.060;2023-11-21T08:52:03;98782.63;;;9.18;73.51
78751;BME280;68070;50.954;11.060;2023-11-21T08:54:30;98782.73;;;9.21;73.09
78751;BME280;68070;50.954;11.060;2023-11-21T08:56:56;98786.61;;;9.22;72.40
78751;BME280;68070;50.954;11.060;2023-11-21T08:59:24;98786.86;;;9.23;73.44
78751;BME280;68070;50.954;11.060;2023-11-21T09:01:49;98786.88;;;9.26;73.20
78751;BME280;68070;50.954;11.060;2023-11-21T09:04:16;98791.11;;;9.19;73.09
78751;BME280;68070;50.954;11.060;2023-11-21T09:06:41;98794.31;;;9.09;72.86
78751;BME280;68070;50.954;11.060;2023-11-21T09:09:07;98796.20;;;8.92;73.00
78751;BME280;68070;50.954;11.060;2023-11-21T09:11:33;98798.13;;;8.80;73.25
78751;BME280;68070;50.954;11.060;2023-11-21T09:14:02;98805.46;;;8.67;73.43
78751;BME280;68070;50.954;11.060;2023-11-21T09:16:30;98808.68;;;8.59;73.65
78751;BME280;68070;50.954;11.060;2023-11-21T09:18:58;98814.95;;;8.58;73.64
78751;BME280;68070;50.954;11.060;2023-11-21T09:21:24;98817.85;;;8.62;73.67
78751;BME280;68070;50.954;11.060;2023-11-21T09:23:51;98817.60;;;8.71;73.60
78751;BME280;68070;50.954;11.060;2023-11-21T09:26:16;98820.92;;;8.79;73.76
78751;BME280;68070;50.954;11.060;2023-11-21T09:28:44;98824.39;;;8.85;73.95
78751;BME280;68070;50.954;11.060;2023-11-21T09:31:13;98823.63;;;8.94;74.18
78751;BME280;68070;50.954;11.060;2023-11-21T09:33:42;98825.22;;;9.01;74.12
78751;BME280;68070;50.954;11.060;2023-11-21T09:36:11;98829.67;;;9.06;73.65
78751;BME280;68070;50.954;11.060;2023-11-21T09:38:37;98827.58;;;9.03;73.10
78751;BME280;68070;50.954;11.060;2023-11-21T09:41:06;98833.51;;;9.00;73.05
78751;BME280;68070;50.954;11.060;2023-11-21T09:43:38;98832.98;;;8.92;73.27
78751;BME280;68070;50.954;11.060;2023-11-21T09:46:06;98835.23;;;8.90;73.15
78751;BME280;68070;50.954;11.060;2023-11-21T09:48:37;98836.79;;;8.93;73.23
78751;BME280;68070;50.954;11.060;2023-11-21T09:51:05;98835.42;;;8.95;72.95
78751;BME280;68070;50.954;11.060;2023-11-21T09:53:32;98835.64;;;8.99;72.55
78751;BME280;68070;50.954;11.060;2023-11-21T09:55:58;98838.96;;;9.00;72.66
78751;BME280;68070;50.954;11.060;2023-11-21T09:58:27;98834.20;;;9.02;72.81
78751;BME280;68070;50.954;11.060;2023-11-21T10:00:57;98835.13;;;9.06;72.75
78751;BME280;68070;50.954;11.060;2023-11-21T10:03:25;98836.16;;;9.15;72.68
78751;BME280;68070;50.954;11.060;2023-11-21T10:05:53;98843.92;;;9.20;72.62
78751;BME280;68070;50.954;11.060;2023-11-21T10:08:19;98841.73;;;9.23;72.78
78751;BME280;68070;50.954;11.060;2023-11-21T10:10:46;98841.16;;;9.26;72.76
78751;BME280;68070;50.954;11.060;2023-11-21T10:13:14;98840.48;;;9.26;72.13
78751;BME280;68070;50.954;11.060;2023-11-21T10:15:42;98842.79;;;9.26;72.67
78751;BME280;68070;50.954;11.060;2023-11-21T10:18:14;98838.44;;;9.27;72.49
78751;BME280;68070;50.954;11.060;2023-11-21T10:20:44;98836.64;;;9.27;72.34
78751;BME280;68070;50.954;11.060;2023-11-21T10:23:18;98837.13;;;9.23;72.24
78751;BME280;68070;50.954;11.060;2023-11-21T10:25:44;98839.29;;;9.20;72.42
78751;BME280;68070;50.954;11.060;2023-11-21T10:28:09;98838.30;;;9.12;72.56
78751;BME280;68070;50.954;11.060;2023-11-21T10:30:37;98844.88;;;9.06;72.59
78751;BME280;68070;50.954;11.060;2023-11-21T10:33:07;98845.33;;;9.00;72.76
78751;BME280;68070;50.954;11.060;2023-11-21T10:35:43;98847.98;;;8.98;72.97
78751;BME280;68070;50.954;11.060;2023-11-21T10:38:12;98844.92;;;9.01;72.94
78751;BME280;68070;50.954;11.060;2023-11-21T10:40:40;98844.93;;;9.06;73.36
78751;BME280;68070;50.954;11.060;2023-11-21T10:43:08;98848.70;;;9.13;73.40
78751;BME280;68070;50.954;11.060;2023-11-21T10:45:36;98851.83;;;9.21;73.57
78751;BME280;68070;50.954;11.060;2023-11-21T10:48:05;98850.73;;;9.26;73.63
78751;BME280;68070;50.954;11.060;2023-11-21T10:50:33;98854.39;;;9.32;73.56
78751;BME280;68070;50.954;11.060;2023-11-21T10:53:01;98852.49;;;9.36;73.58
78751;BME280;68070;50.954;11.060;2023-11-21T10:55:30;98851.71;;;9.40;73.23
78751;BME280;68070;50.954;11.060;2023-11-21T10:57:59;98853.86;;;9.43;73.04
78751;BME280;68070;50.954;11.060;2023-11-21T11:00:27;98858.95;;;9.38;72.95
78751;BME280;68070;50.954;11.060;2023-11-21T11:02:53;98860.42;;;9.35;72.90
78751;BME280;68070;50.954;11.060;2023-11-21T11:05:27;98866.97;;;9.30;72.81
78751;BME280;68070;50.954;11.060;2023-11-21T11:08:03;98867.63;;;9.17;73.07
78751;BME280;68070;50.954;11.060;2023-11-21T11:10:29;98868.50;;;9.09;73.29
78751;BME280;68070;50.954;11.060;2023-11-21T11:12:58;98866.64;;;9.10;73.89
78751;BME280;68070;50.954;11.060;2023-11-21T11:15:25;98865.53;;;9.14;74.33
78751;BME280;68070;50.954;11.060;2023-11-21T11:17:53;98868.11;;;9.17;74.61
78751;BME280;68070;50.954;11.060;2023-11-21T11:20:29;98869.06;;;9.24;74.40
78751;BME280;68070;50.954;11.060;2023-11-21T11:25:43;98867.55;;;9.27;74.53
78751;BME280;68070;50.954;11.060;2023-11-21T11:28:14;98872.85;;;9.35;74.54
78751;BME280;68070;50.954;11.060;2023-11-21T11:31:04;98871.29;;;9.42;74.54
78751;BME280;68070;50.954;11.060;2023-11-21T11:33:55;98877.81;;;9.48;74.41
78751;BME280;68070;50.954;11.060;2023-11-21T11:36:36;98877.70;;;9.49;74.21
78751;BME280;68070;50.954;11.060;2023-11-21T11:39:03;98879.84;;;9.51;73.86
78751;BME280;68070;50.954;11.060;2023-11-21T11:41:48;98877.06;;;9.53;73.66
78751;BME280;68070;50.954;11.060;2023-11-21T11:47:26;98883.62;;;9.58;74.05
78751;BME280;68070;50.954;11.060;2023-11-21T11:52:34;98889.85;;;9.51;74.51
78751;BME280;68070;50.954;11.060;2023-11-21T11:55:04;98893.75;;;9.51;74.75
78751;BME280;68070;50.954;11.060;2023-11-21T11:57:30;98891.46;;;9.48;74.83
78751;BME280;68070;50.954;11.060;2023-11-21T12:00:17;98890.48;;;9.47;74.93
78751;BME280;68070;50.954;11.060;2023-11-21T12:02:48;98890.84;;;9.52;74.99
78751;BME280;68070;50.954;11.060;2023-11-21T12:05:16;98894.85;;;9.55;75.07
78751;BME280;68070;50.954;11.060;2023-11-21T12:07:50;98895.35;;;9.53;74.72
78751;BME280;68070;50.954;11.060;2023-11-21T12:10:20;98896.70;;;9.52;74.63
78751;BME280;68070;50.954;11.060;2023-11-21T12:12:49;98898.79;;;9.48;74.64
78751;BME280;68070;50.954;11.060;2023-11-21T12:15:15;98900.10;;;9.49;74.50
78751;BME280;68070;50.954;11.060;2023-11-21T12:17:43;98900.27;;;9.51;74.49
78751;BME280;68070;50.954;11.060;2023-11-21T12:20:10;98902.11;;;9.58;74.70
78751;BME280;68070;50.954;11.060;2023-11-21T12:22:49;98901.53;;;9.58;75.21
78751;BME280;68070;50.954;11.060;2023-11-21T12:25:16;98903.52;;;9.63;75.53
78751;BME280;68070;50.954;11.060;2023-11-21T12:27:47;98907.08;;;9.70;75.46
78751;BME280;68070;50.954;11.060;2023-11-21T12:30:16;98912.55;;;9.68;75.69
78751;BME280;68070;50.954;11.060;2023-11-21T12:32:50;98916.21;;;9.62;75.79
78751;BME280;68070;50.954;11.060;2023-11-21T12:35:21;98917.50;;;9.59;75.35
78751;BME280;68070;50.954;11.060;2023-11-21T12:37:47;98923.40;;;9.56;75.51
78751;BME280;68070;50.954;11.060;2023-11-21T12:40:16;98924.09;;;9.54;75.26
78751;BME280;68070;50.954;11.060;2023-11-21T12:42:44;98922.36;;;9.48;75.48
78751;BME280;68070;50.954;11.060;2023-11-21T12:45:21;98930.83;;;9.41;75.28
78751;BME280;68070;50.954;11.060;2023-11-21T12:47:49;98936.87;;;9.36;75.43
78751;BME280;68070;50.954;11.060;2023-11-21T12:50:19;98934.50;;;9.27;76.37
78751;BME280;68070;50.954;11.060;2023-11-21T12:52:49;98936.48;;;9.24;76.45
78751;BME280;68070;50.954;11.060;2023-11-21T12:55:20;98942.42;;;9.23;76.81
78751;BME280;68070;50.954;11.060;2023-11-21T12:57:52;98938.17;;;9.23;77.02
78751;BME280;68070;50.954;11.060;2023-11-21T13:00:26;98943.84;;;9.21;77.66
78751;BME280;68070;50.954;11.060;2023-11-21T13:02:54;98939.84;;;9.20;76.67
78751;BME280;68070;50.954;11.060;2023-11-21T13:05:24;98942.15;;;9.09;77.12
78751;BME280;68070;50.954;11.060;2023-11-21T13:07:50;98946.75;;;8.87;78.15
78751;BME280;68070;50.954;11.060;2023-11-21T13:10:21;98952.44;;;8.71;78.48